sensor_id;sensor_type;location;lat;lon;timestamp;P1;durP1;ratioP1;P2;durP2;ratioP2
39050;SDS011;24805;55.852;37.644;2022-12-18T00:00:22;6.75;;;4.10;;
39050;SDS011;24805;55.852;37.644;2022-12-18T00:05:27;6.93;;;4.18;;
39050;SDS011;24805;55.852;37.644;2022-12-18T00:10:29;7.13;;;4.15;;
39050;SDS011;24805;55.852;37.644;2022-12-18T00:15:33;7.78;;;4.47;;
39050;SDS011;24805;55.852;37.644;2022-12-18T00:20:36;7.47;;;4.95;;
39050;SDS011;24805;55.852;37.644;2022-12-18T00:25:39;5.97;;;3.90;;
39050;SDS011;24805;55.852;37.644;2022-12-18T00:30:41;7.05;;;4.03;;
39050;SDS011;24805;55.852;37.644;2022-12-18T00:35:43;7.25;;;4.50;;
39050;SDS011;24805;55.852;37.644;2022-12-18T00:40:45;6.07;;;3.67;;
39050;SDS011;24805;55.852;37.644;2022-12-18T00:45:47;6.57;;;3.70;;
39050;SDS011;24805;55.852;37.644;2022-12-18T00:50:50;7.63;;;4.13;;
39050;SDS011;24805;55.852;37.644;2022-12-18T00:55:52;7.78;;;3.80;;
39050;SDS011;24805;55.852;37.644;2022-12-18T01:00:54;5.63;;;3.15;;
39050;SDS011;24805;55.852;37.644;2022-12-18T01:05:57;6.68;;;3.95;;
39050;SDS011;24805;55.852;37.644;2022-12-18T01:10:59;5.47;;;3.30;;
39050;SDS011;24805;55.852;37.644;2022-12-18T01:16:01;5.90;;;3.78;;
39050;SDS011;24805;55.852;37.644;2022-12-18T01:21:07;5.85;;;3.72;;
39050;SDS011;24805;55.852;37.644;2022-12-18T01:26:12;6.03;;;3.40;;
39050;SDS011;24805;55.852;37.644;2022-12-18T01:31:18;5.47;;;3.60;;
39050;SDS011;24805;55.852;37.644;2022-12-18T01:36:31;6.80;;;3.95;;
39050;SDS011;24805;55.852;37.644;2022-12-18T01:41:39;6.03;;;3.58;;
39050;SDS011;24805;55.852;37.644;2022-12-18T01:46:59;6.88;;;3.58;;
39050;SDS011;24805;55.852;37.644;2022-12-18T01:52:02;5.63;;;3.55;;
39050;SDS011;24805;55.852;37.644;2022-12-18T01:57:04;6.88;;;3.58;;
39050;SDS011;24805;55.852;37.644;2022-12-18T02:02:06;6.93;;;3.88;;
39050;SDS011;24805;55.852;37.644;2022-12-18T02:12:24;5.45;;;3.13;;
39050;SDS011;24805;55.852;37.644;2022-12-18T02:17:36;6.45;;;3.45;;
39050;SDS011;24805;55.852;37.644;2022-12-18T02:22:46;5.28;;;3.03;;
39050;SDS011;24805;55.852;37.644;2022-12-18T02:28:06;5.38;;;3.25;;
39050;SDS011;24805;55.852;37.644;2022-12-18T02:33:14;6.63;;;3.28;;
39050;SDS011;24805;55.852;37.644;2022-12-18T02:38:17;5.18;;;3.17;;
39050;SDS011;24805;55.852;37.644;2022-12-18T02:43:22;6.35;;;3.13;;
39050;SDS011;24805;55.852;37.644;2022-12-18T02:48:27;5.43;;;2.88;;
39050;SDS011;24805;55.852;37.644;2022-12-18T02:53:39;5.70;;;3.33;;
39050;SDS011;24805;55.852;37.644;2022-12-18T02:58:50;4.65;;;3.15;;
39050;SDS011;24805;55.852;37.644;2022-12-18T03:09:39;8.10;;;3.50;;
39050;SDS011;24805;55.852;37.644;2022-12-18T03:14:45;4.05;;;2.70;;
39050;SDS011;24805;55.852;37.644;2022-12-18T03:19:52;4.68;;;3.00;;
39050;SDS011;24805;55.852;37.644;2022-12-18T03:24:57;5.63;;;3.00;;
39050;SDS011;24805;55.852;37.644;2022-12-18T03:30:05;5.63;;;2.80;;
39050;SDS011;24805;55.852;37.644;2022-12-18T03:35:13;5.32;;;3.17;;
39050;SDS011;24805;55.852;37.644;2022-12-18T03:40:24;5.55;;;3.00;;
39050;SDS011;24805;55.852;37.644;2022-12-18T03:45:34;5.20;;;2.97;;
39050;SDS011;24805;55.852;37.644;2022-12-18T03:50:54;5.28;;;3.03;;
39050;SDS011;24805;55.852;37.644;2022-12-18T03:56:00;5.93;;;2.92;;
39050;SDS011;24805;55.852;37.644;2022-12-18T04:01:08;5.97;;;3.33;;
39050;SDS011;24805;55.852;37.644;2022-12-18T04:06:14;4.00;;;2.78;;
39050;SDS011;24805;55.852;37.644;2022-12-18T04:11:19;5.53;;;2.97;;
39050;SDS011;24805;55.852;37.644;2022-12-18T04:16:22;7.63;;;2.70;;
39050;SDS011;24805;55.852;37.644;2022-12-18T04:21:27;4.55;;;2.55;;
39050;SDS011;24805;55.852;37.644;2022-12-18T04:26:29;4.75;;;2.70;;
39050;SDS011;24805;55.852;37.644;2022-12-18T04:31:50;4.83;;;2.60;;
39050;SDS011;24805;55.852;37.644;2022-12-18T04:36:53;4.63;;;3.00;;
39050;SDS011;24805;55.852;37.644;2022-12-18T04:41:56;3.53;;;2.38;;
39050;SDS011;24805;55.852;37.644;2022-12-18T04:47:02;3.88;;;2.22;;
39050;SDS011;24805;55.852;37.644;2022-12-18T04:52:04;4.10;;;2.42;;
39050;SDS011;24805;55.852;37.644;2022-12-18T04:57:07;4.82;;;2.45;;
39050;SDS011;24805;55.852;37.644;2022-12-18T05:02:09;4.47;;;2.90;;
39050;SDS011;24805;55.852;37.644;2022-12-18T05:07:12;3.85;;;2.28;;
39050;SDS011;24805;55.852;37.644;2022-12-18T05:12:14;4.28;;;2.30;;
39050;SDS011;24805;55.852;37.644;2022-12-18T05:17:16;4.80;;;2.50;;
39050;SDS011;24805;55.852;37.644;2022-12-18T05:22:18;2.83;;;1.83;;
39050;SDS011;24805;55.852;37.644;2022-12-18T05:27:20;4.93;;;2.60;;
39050;SDS011;24805;55.852;37.644;2022-12-18T05:32:23;5.07;;;2.88;;
39050;SDS011;24805;55.852;37.644;2022-12-18T05:37:25;4.53;;;2.30;;
39050;SDS011;24805;55.852;37.644;2022-12-18T05:42:27;4.40;;;2.25;;
39050;SDS011;24805;55.852;37.644;2022-12-18T05:47:29;3.95;;;2.22;;
39050;SDS011;24805;55.852;37.644;2022-12-18T05:52:31;6.35;;;2.72;;
39050;SDS011;24805;55.852;37.644;2022-12-18T05:57:33;5.30;;;2.35;;
39050;SDS011;24805;55.852;37.644;2022-12-18T06:02:35;4.75;;;2.53;;
39050;SDS011;24805;55.852;37.644;2022-12-18T06:07:37;5.25;;;3.20;;
39050;SDS011;24805;55.852;37.644;2022-12-18T06:12:39;5.25;;;2.78;;
39050;SDS011;24805;55.852;37.644;2022-12-18T06:17:42;3.92;;;2.38;;
39050;SDS011;24805;55.852;37.644;2022-12-18T06:22:45;5.50;;;2.92;;
39050;SDS011;24805;55.852;37.644;2022-12-18T06:27:47;4.57;;;2.47;;
39050;SDS011;24805;55.852;37.644;2022-12-18T06:32:49;4.32;;;2.47;;
39050;SDS011;24805;55.852;37.644;2022-12-18T06:37:57;4.80;;;2.63;;
39050;SDS011;24805;55.852;37.644;2022-12-18T06:42:59;4.78;;;2.47;;
39050;SDS011;24805;55.852;37.644;2022-12-18T06:48:01;5.07;;;2.53;;
39050;SDS011;24805;55.852;37.644;2022-12-18T06:53:03;5.80;;;2.78;;
39050;SDS011;24805;55.852;37.644;2022-12-18T06:58:08;3.58;;;2.05;;
39050;SDS011;24805;55.852;37.644;2022-12-18T07:03:11;5.30;;;2.92;;
39050;SDS011;24805;55.852;37.644;2022-12-18T07:08:14;4.50;;;2.60;;
39050;SDS011;24805;55.852;37.644;2022-12-18T07:13:16;3.80;;;2.15;;
39050;SDS011;24805;55.852;37.644;2022-12-18T07:18:18;4.22;;;2.33;;
39050;SDS011;24805;55.852;37.644;2022-12-18T07:23:21;5.30;;;2.90;;
39050;SDS011;24805;55.852;37.644;2022-12-18T07:28:23;7.10;;;2.30;;
39050;SDS011;24805;55.852;37.644;2022-12-18T07:33:25;4.45;;;2.63;;
39050;SDS011;24805;55.852;37.644;2022-12-18T07:38:27;5.70;;;2.70;;
39050;SDS011;24805;55.852;37.644;2022-12-18T07:43:30;4.78;;;2.20;;
39050;SDS011;24805;55.852;37.644;2022-12-18T07:48:32;5.18;;;2.38;;
39050;SDS011;24805;55.852;37.644;2022-12-18T07:53:35;6.15;;;3.13;;
39050;SDS011;24805;55.852;37.644;2022-12-18T07:58:38;4.55;;;2.65;;
39050;SDS011;24805;55.852;37.644;2022-12-18T08:03:40;5.38;;;2.70;;
39050;SDS011;24805;55.852;37.644;2022-12-18T08:08:43;4.75;;;2.80;;
39050;SDS011;24805;55.852;37.644;2022-12-18T08:13:45;4.65;;;2.78;;
39050;SDS011;24805;55.852;37.644;2022-12-18T08:18:47;5.25;;;2.53;;
39050;SDS011;24805;55.852;37.644;2022-12-18T08:23:51;4.43;;;2.72;;
39050;SDS011;24805;55.852;37.644;2022-12-18T08:28:56;5.60;;;2.60;;
39050;SDS011;24805;55.852;37.644;2022-12-18T08:33:59;4.25;;;2.13;;
39050;SDS011;24805;55.852;37.644;2022-12-18T08:39:02;5.13;;;2.65;;
39050;SDS011;24805;55.852;37.644;2022-12-18T08:44:04;4.18;;;2.25;;
39050;SDS011;24805;55.852;37.644;2022-12-18T08:49:25;3.97;;;2.17;;
39050;SDS011;24805;55.852;37.644;2022-12-18T08:54:27;3.75;;;1.88;;
39050;SDS011;24805;55.852;37.644;2022-12-18T08:59:29;3.50;;;2.13;;
39050;SDS011;24805;55.852;37.644;2022-12-18T09:04:31;4.78;;;2.30;;
39050;SDS011;24805;55.852;37.644;2022-12-18T09:09:33;4.95;;;2.50;;
39050;SDS011;24805;55.852;37.644;2022-12-18T09:14:35;5.88;;;2.85;;
39050;SDS011;24805;55.852;37.644;2022-12-18T09:19:37;5.03;;;2.08;;
39050;SDS011;24805;55.852;37.644;2022-12-18T09:24:39;3.97;;;1.90;;
39050;SDS011;24805;55.852;37.644;2022-12-18T09:29:41;5.90;;;2.40;;
39050;SDS011;24805;55.852;37.644;2022-12-18T09:34:43;3.55;;;1.83;;
39050;SDS011;24805;55.852;37.644;2022-12-18T09:39:45;3.45;;;1.60;;
39050;SDS011;24805;55.852;37.644;2022-12-18T09:44:49;3.70;;;1.92;;
39050;SDS011;24805;55.852;37.644;2022-12-18T09:50:05;3.78;;;2.40;;
39050;SDS011;24805;55.852;37.644;2022-12-18T09:55:28;7.50;;;2.72;;
39050;SDS011;24805;55.852;37.644;2022-12-18T10:00:38;4.47;;;1.65;;
39050;SDS011;24805;55.852;37.644;2022-12-18T10:05:46;5.18;;;2.15;;
39050;SDS011;24805;55.852;37.644;2022-12-18T10:11:33;3.78;;;1.92;;
39050;SDS011;24805;55.852;37.644;2022-12-18T10:22:33;3.57;;;2.13;;
39050;SDS011;24805;55.852;37.644;2022-12-18T10:27:44;4.95;;;2.30;;
39050;SDS011;24805;55.852;37.644;2022-12-18T10:32:46;2.75;;;1.60;;
39050;SDS011;24805;55.852;37.644;2022-12-18T10:43:26;4.18;;;2.33;;
39050;SDS011;24805;55.852;37.644;2022-12-18T10:48:36;3.83;;;2.10;;
39050;SDS011;24805;55.852;37.644;2022-12-18T10:53:42;3.60;;;2.00;;
39050;SDS011;24805;55.852;37.644;2022-12-18T10:58:44;4.28;;;2.13;;
39050;SDS011;24805;55.852;37.644;2022-12-18T11:04:00;4.10;;;1.75;;
39050;SDS011;24805;55.852;37.644;2022-12-18T11:09:04;8.95;;;2.33;;
39050;SDS011;24805;55.852;37.644;2022-12-18T11:14:24;4.38;;;2.22;;
39050;SDS011;24805;55.852;37.644;2022-12-18T11:24:37;5.70;;;2.42;;
39050;SDS011;24805;55.852;37.644;2022-12-18T11:29:39;3.92;;;2.35;;
39050;SDS011;24805;55.852;37.644;2022-12-18T11:34:48;4.00;;;1.88;;
39050;SDS011;24805;55.852;37.644;2022-12-18T11:40:04;6.65;;;2.67;;
39050;SDS011;24805;55.852;37.644;2022-12-18T11:50:20;3.95;;;1.83;;
39050;SDS011;24805;55.852;37.644;2022-12-18T12:00:49;2.67;;;1.73;;
39050;SDS011;24805;55.852;37.644;2022-12-18T12:22:13;2.63;;;1.63;;
39050;SDS011;24805;55.852;37.644;2022-12-18T12:38:21;2.55;;;1.20;;
39050;SDS011;24805;55.852;37.644;2022-12-18T12:43:32;4.18;;;1.70;;
39050;SDS011;24805;55.852;37.644;2022-12-18T12:48:43;2.60;;;1.55;;
39050;SDS011;24805;55.852;37.644;2022-12-18T12:53:49;3.38;;;2.58;;
39050;SDS011;24805;55.852;37.644;2022-12-18T12:59:12;2.90;;;1.60;;
39050;SDS011;24805;55.852;37.644;2022-12-18T13:15:22;4.00;;;1.80;;
39050;SDS011;24805;55.852;37.644;2022-12-18T13:20:36;3.45;;;1.58;;
39050;SDS011;24805;55.852;37.644;2022-12-18T13:30:54;6.68;;;2.88;;
39050;SDS011;24805;55.852;37.644;2022-12-18T13:36:16;8.23;;;3.30;;
39050;SDS011;24805;55.852;37.644;2022-12-18T13:41:25;9.68;;;4.32;;
39050;SDS011;24805;55.852;37.644;2022-12-18T13:46:30;8.52;;;3.92;;
39050;SDS011;24805;55.852;37.644;2022-12-18T13:51:49;9.20;;;4.97;;
39050;SDS011;24805;55.852;37.644;2022-12-18T13:56:53;9.75;;;4.30;;
39050;SDS011;24805;55.852;37.644;2022-12-18T14:01:59;8.85;;;4.40;;
39050;SDS011;24805;55.852;37.644;2022-12-18T14:07:09;8.82;;;3.85;;
39050;SDS011;24805;55.852;37.644;2022-12-18T14:12:16;10.55;;;4.55;;
39050;SDS011;24805;55.852;37.644;2022-12-18T14:17:38;6.45;;;3.75;;
39050;SDS011;24805;55.852;37.644;2022-12-18T14:22:44;7.05;;;3.95;;
39050;SDS011;24805;55.852;37.644;2022-12-18T14:27:52;8.00;;;4.20;;
39050;SDS011;24805;55.852;37.644;2022-12-18T14:38:18;6.55;;;2.85;;
39050;SDS011;24805;55.852;37.644;2022-12-18T14:43:24;4.88;;;2.30;;
39050;SDS011;24805;55.852;37.644;2022-12-18T14:53:42;5.22;;;2.50;;
39050;SDS011;24805;55.852;37.644;2022-12-18T15:03:57;6.93;;;2.58;;
39050;SDS011;24805;55.852;37.644;2022-12-18T15:09:01;4.35;;;1.90;;
39050;SDS011;24805;55.852;37.644;2022-12-18T15:14:23;6.85;;;2.20;;
39050;SDS011;24805;55.852;37.644;2022-12-18T15:19:38;3.13;;;1.60;;
39050;SDS011;24805;55.852;37.644;2022-12-18T15:24:42;4.00;;;1.97;;
39050;SDS011;24805;55.852;37.644;2022-12-18T15:29:44;4.32;;;2.13;;
39050;SDS011;24805;55.852;37.644;2022-12-18T15:35:24;4.95;;;2.05;;
39050;SDS011;24805;55.852;37.644;2022-12-18T15:40:26;5.05;;;2.10;;
39050;SDS011;24805;55.852;37.644;2022-12-18T15:45:28;2.90;;;1.50;;
39050;SDS011;24805;55.852;37.644;2022-12-18T15:50:30;4.55;;;2.10;;
39050;SDS011;24805;55.852;37.644;2022-12-18T15:55:32;2.83;;;1.63;;
39050;SDS011;24805;55.852;37.644;2022-12-18T16:01:01;5.47;;;2.67;;
39050;SDS011;24805;55.852;37.644;2022-12-18T16:06:03;4.78;;;2.22;;
39050;SDS011;24805;55.852;37.644;2022-12-18T16:11:05;4.43;;;2.25;;
39050;SDS011;24805;55.852;37.644;2022-12-18T16:16:08;5.40;;;3.03;;
39050;SDS011;24805;55.852;37.644;2022-12-18T16:21:10;5.07;;;2.53;;
39050;SDS011;24805;55.852;37.644;2022-12-18T16:26:12;4.47;;;2.28;;
39050;SDS011;24805;55.852;37.644;2022-12-18T16:31:14;3.88;;;2.70;;
39050;SDS011;24805;55.852;37.644;2022-12-18T16:36:16;4.05;;;2.42;;
39050;SDS011;24805;55.852;37.644;2022-12-18T16:41:18;4.35;;;2.75;;
39050;SDS011;24805;55.852;37.644;2022-12-18T16:46:32;4.22;;;2.47;;
39050;SDS011;24805;55.852;37.644;2022-12-18T16:51:35;3.85;;;2.15;;
39050;SDS011;24805;55.852;37.644;2022-12-18T16:56:37;3.80;;;1.98;;
39050;SDS011;24805;55.852;37.644;2022-12-18T17:01:39;8.55;;;2.65;;
39050;SDS011;24805;55.852;37.644;2022-12-18T17:06:43;5.57;;;2.83;;
39050;SDS011;24805;55.852;37.644;2022-12-18T17:11:48;6.80;;;2.60;;
39050;SDS011;24805;55.852;37.644;2022-12-18T17:16:51;5.40;;;2.55;;
39050;SDS011;24805;55.852;37.644;2022-12-18T17:22:14;5.72;;;2.55;;
39050;SDS011;24805;55.852;37.644;2022-12-18T17:27:16;4.43;;;2.15;;
39050;SDS011;24805;55.852;37.644;2022-12-18T17:32:18;5.30;;;2.70;;
39050;SDS011;24805;55.852;37.644;2022-12-18T17:37:20;5.80;;;2.65;;
39050;SDS011;24805;55.852;37.644;2022-12-18T17:42:22;5.32;;;2.47;;
39050;SDS011;24805;55.852;37.644;2022-12-18T17:47:24;6.18;;;2.85;;
39050;SDS011;24805;55.852;37.644;2022-12-18T17:52:26;5.53;;;2.63;;
39050;SDS011;24805;55.852;37.644;2022-12-18T17:57:28;5.03;;;2.20;;
39050;SDS011;24805;55.852;37.644;2022-12-18T18:02:31;5.22;;;2.42;;
39050;SDS011;24805;55.852;37.644;2022-12-18T18:07:34;6.32;;;3.10;;
39050;SDS011;24805;55.852;37.644;2022-12-18T18:12:36;5.47;;;2.60;;
39050;SDS011;24805;55.852;37.644;2022-12-18T18:17:57;4.93;;;2.08;;
39050;SDS011;24805;55.852;37.644;2022-12-18T18:23:01;6.25;;;2.75;;
39050;SDS011;24805;55.852;37.644;2022-12-18T18:28:03;9.15;;;2.35;;
39050;SDS011;24805;55.852;37.644;2022-12-18T18:33:05;5.30;;;2.40;;
39050;SDS011;24805;55.852;37.644;2022-12-18T18:38:12;7.72;;;2.95;;
39050;SDS011;24805;55.852;37.644;2022-12-18T18:43:14;4.97;;;2.40;;
39050;SDS011;24805;55.852;37.644;2022-12-18T18:48:16;6.15;;;2.47;;
39050;SDS011;24805;55.852;37.644;2022-12-18T18:53:18;7.18;;;2.78;;
39050;SDS011;24805;55.852;37.644;2022-12-18T18:58:20;4.45;;;2.40;;
39050;SDS011;24805;55.852;37.644;2022-12-18T19:03:22;6.72;;;2.63;;
39050;SDS011;24805;55.852;37.644;2022-12-18T19:08:27;4.55;;;2.30;;
39050;SDS011;24805;55.852;37.644;2022-12-18T19:13:32;7.50;;;2.63;;
39050;SDS011;24805;55.852;37.644;2022-12-18T19:18:34;6.03;;;2.83;;
39050;SDS011;24805;55.852;37.644;2022-12-18T19:23:39;8.13;;;3.30;;
39050;SDS011;24805;55.852;37.644;2022-12-18T19:28:42;6.88;;;2.83;;
39050;SDS011;24805;55.852;37.644;2022-12-18T19:33:45;7.68;;;3.50;;
39050;SDS011;24805;55.852;37.644;2022-12-18T19:38:48;6.78;;;3.00;;
39050;SDS011;24805;55.852;37.644;2022-12-18T19:43:51;8.20;;;2.85;;
39050;SDS011;24805;55.852;37.644;2022-12-18T19:48:58;6.63;;;3.15;;
39050;SDS011;24805;55.852;37.644;2022-12-18T19:54:01;6.97;;;3.25;;
39050;SDS011;24805;55.852;37.644;2022-12-18T19:59:03;9.95;;;3.35;;
39050;SDS011;24805;55.852;37.644;2022-12-18T20:04:06;5.82;;;2.85;;
39050;SDS011;24805;55.852;37.644;2022-12-18T20:09:08;6.95;;;2.85;;
39050;SDS011;24805;55.852;37.644;2022-12-18T20:14:12;8.48;;;3.53;;
39050;SDS011;24805;55.852;37.644;2022-12-18T20:19:19;7.82;;;3.38;;
39050;SDS011;24805;55.852;37.644;2022-12-18T20:24:22;6.57;;;2.42;;
39050;SDS011;24805;55.852;37.644;2022-12-18T20:29:24;7.43;;;3.30;;
39050;SDS011;24805;55.852;37.644;2022-12-18T20:34:26;7.30;;;2.90;;
39050;SDS011;24805;55.852;37.644;2022-12-18T20:39:28;7.38;;;2.95;;
39050;SDS011;24805;55.852;37.644;2022-12-18T20:44:31;7.35;;;3.33;;
39050;SDS011;24805;55.852;37.644;2022-12-18T20:49:34;8.27;;;3.13;;
39050;SDS011;24805;55.852;37.644;2022-12-18T20:54:37;7.93;;;3.70;;
39050;SDS011;24805;55.852;37.644;2022-12-18T20:59:40;8.05;;;3.78;;
39050;SDS011;24805;55.852;37.644;2022-12-18T21:04:48;10.00;;;3.75;;
39050;SDS011;24805;55.852;37.644;2022-12-18T21:09:51;12.50;;;4.50;;
39050;SDS011;24805;55.852;37.644;2022-12-18T21:14:53;13.65;;;5.88;;
39050;SDS011;24805;55.852;37.644;2022-12-18T21:19:55;10.93;;;4.43;;
39050;SDS011;24805;55.852;37.644;2022-12-18T21:24:57;10.77;;;4.53;;
39050;SDS011;24805;55.852;37.644;2022-12-18T21:29:59;12.68;;;4.72;;
39050;SDS011;24805;55.852;37.644;2022-12-18T21:35:02;7.85;;;3.40;;
39050;SDS011;24805;55.852;37.644;2022-12-18T21:40:04;11.68;;;4.63;;
39050;SDS011;24805;55.852;37.644;2022-12-18T21:45:07;8.75;;;3.70;;
39050;SDS011;24805;55.852;37.644;2022-12-18T21:50:09;11.95;;;4.40;;
39050;SDS011;24805;55.852;37.644;2022-12-18T21:55:11;9.00;;;3.38;;
39050;SDS011;24805;55.852;37.644;2022-12-18T22:00:13;8.68;;;3.83;;
39050;SDS011;24805;55.852;37.644;2022-12-18T22:05:20;6.55;;;3.15;;
39050;SDS011;24805;55.852;37.644;2022-12-18T22:10:22;8.05;;;3.55;;
39050;SDS011;24805;55.852;37.644;2022-12-18T22:15:24;6.47;;;2.90;;
39050;SDS011;24805;55.852;37.644;2022-12-18T22:20:26;7.50;;;3.38;;
39050;SDS011;24805;55.852;37.644;2022-12-18T22:25:30;5.68;;;2.92;;
39050;SDS011;24805;55.852;37.644;2022-12-18T22:30:34;5.75;;;2.53;;
39050;SDS011;24805;55.852;37.644;2022-12-18T22:35:36;5.82;;;2.95;;
39050;SDS011;24805;55.852;37.644;2022-12-18T22:40:39;6.60;;;2.80;;
39050;SDS011;24805;55.852;37.644;2022-12-18T22:45:41;5.07;;;3.00;;
39050;SDS011;24805;55.852;37.644;2022-12-18T22:50:48;6.88;;;2.67;;
39050;SDS011;24805;55.852;37.644;2022-12-18T22:55:59;5.88;;;2.88;;
39050;SDS011;24805;55.852;37.644;2022-12-18T23:01:02;6.47;;;2.92;;
39050;SDS011;24805;55.852;37.644;2022-12-18T23:06:06;7.72;;;2.83;;
39050;SDS011;24805;55.852;37.644;2022-12-18T23:11:09;5.03;;;2.20;;
39050;SDS011;24805;55.852;37.644;2022-12-18T23:16:13;3.83;;;2.33;;
39050;SDS011;24805;55.852;37.644;2022-12-18T23:21:18;10.85;;;2.55;;
39050;SDS011;24805;55.852;37.644;2022-12-18T23:26:22;5.78;;;2.63;;
39050;SDS011;24805;55.852;37.644;2022-12-18T23:31:27;4.93;;;2.25;;
39050;SDS011;24805;55.852;37.644;2022-12-18T23:36:30;3.78;;;2.10;;
39050;SDS011;24805;55.852;37.644;2022-12-18T23:41:46;5.32;;;1.92;;
39050;SDS011;24805;55.852;37.644;2022-12-18T23:46:48;3.88;;;2.00;;
39050;SDS011;24805;55.852;37.644;2022-12-18T23:51:52;5.25;;;2.05;;
39050;SDS011;24805;55.852;37.644;2022-12-18T23:56:55;3.28;;;1.63;;
